createdAt,value
2023-04-02T00:00:20.761Z,100.00
2023-04-02T00:03:01.891Z,100.00
2023-04-02T00:05:55.784Z,100.00
2023-04-02T00:08:27.021Z,100.00
2023-04-02T00:10:58.916Z,100.00
2023-04-02T00:13:33.996Z,100.00
2023-04-02T00:16:04.299Z,100.00
2023-04-02T00:18:34.218Z,100.00
2023-04-02T00:21:11.523Z,100.00
2023-04-02T00:23:41.903Z,100.00
2023-04-02T00:26:24.880Z,100.00
2023-04-02T00:28:54.069Z,100.00
2023-04-02T00:31:22.258Z,100.00
2023-04-02T00:33:50.449Z,100.00
2023-04-02T00:36:21.860Z,100.00
2023-04-02T00:38:50.387Z,100.00
2023-04-02T00:41:27.125Z,100.00
2023-04-02T00:43:57.740Z,100.00
2023-04-02T00:46:32.031Z,100.00
2023-04-02T00:49:07.998Z,100.00
2023-04-02T00:51:39.849Z,100.00
2023-04-02T00:54:15.641Z,100.00
2023-04-02T00:56:47.288Z,100.00
2023-04-02T00:59:23.927Z,100.00
2023-04-02T01:01:55.247Z,100.00
2023-04-02T01:04:31.466Z,100.00
2023-04-02T01:06:59.713Z,100.00
2023-04-02T01:09:42.952Z,100.00
2023-04-02T01:12:30.871Z,100.00
2023-04-02T01:15:09.712Z,100.00
2023-04-02T01:17:58.363Z,100.00
2023-04-02T01:20:54.180Z,100.00
2023-04-02T01:23:29.434Z,100.00
2023-04-02T01:26:05.882Z,100.00
2023-04-02T01:28:50.187Z,100.00
2023-04-02T01:31:18.870Z,100.00
2023-04-02T01:33:46.736Z,100.00
2023-04-02T01:36:22.451Z,100.00
2023-04-02T01:39:02.186Z,100.00
2023-04-02T01:41:38.278Z,100.00
2023-04-02T01:44:10.236Z,100.00
2023-04-02T01:46:41.215Z,100.00
2023-04-02T01:49:14.889Z,100.00
2023-04-02T01:51:44.883Z,100.00
2023-04-02T01:54:17.091Z,100.00
2023-04-02T01:56:47.181Z,100.00
2023-04-02T01:59:18.779Z,100.00
2023-04-02T02:01:52.896Z,100.00
2023-04-02T02:04:21.281Z,100.00
2023-04-02T02:06:50.353Z,100.00
2023-04-02T02:09:23.995Z,100.00
2023-04-02T02:11:52.088Z,100.00
2023-04-02T02:14:24.725Z,100.00
2023-04-02T02:16:56.679Z,100.00
2023-04-02T02:19:29.728Z,100.00
2023-04-02T02:22:05.345Z,100.00
2023-04-02T02:24:35.732Z,100.00
2023-04-02T02:27:19.589Z,100.00
2023-04-02T02:29:52.629Z,100.00
2023-04-02T02:32:23.359Z,100.00
2023-04-02T02:34:59.609Z,100.00
2023-04-02T02:37:30.703Z,100.00
2023-04-02T02:40:01.721Z,100.00
2023-04-02T02:42:35.125Z,100.00
2023-04-02T02:45:08.029Z,100.00
2023-04-02T02:47:39.159Z,100.00
2023-04-02T02:50:18.337Z,100.00
2023-04-02T02:52:51.618Z,100.00
2023-04-02T02:55:23.327Z,100.00
2023-04-02T02:58:19.207Z,100.00
2023-04-02T03:01:00.620Z,100.00
2023-04-02T03:03:34.290Z,100.00
2023-04-02T03:06:08.465Z,100.00
2023-04-02T03:08:44.471Z,100.00
2023-04-02T03:11:24.132Z,100.00
2023-04-02T03:13:57.048Z,100.00
2023-04-02T03:16:32.389Z,100.00
2023-04-02T03:19:03.593Z,100.00
2023-04-02T03:21:39.028Z,100.00
2023-04-02T03:24:14.565Z,100.00
2023-04-02T03:26:47.963Z,100.00
2023-04-02T03:29:19.464Z,100.00
2023-04-02T03:31:54.924Z,100.00
2023-04-02T03:34:28.024Z,100.00
2023-04-02T03:37:00.670Z,100.00
2023-04-02T03:39:37.426Z,100.00
2023-04-02T03:42:10.450Z,100.00
2023-04-02T03:44:46.429Z,100.00
2023-04-02T03:47:20.255Z,100.00
2023-04-02T03:49:54.934Z,100.00
2023-04-02T03:52:27.169Z,100.00
2023-04-02T03:54:58.454Z,100.00
2023-04-02T03:57:32.827Z,100.00
2023-04-02T04:00:06.491Z,100.00
2023-04-02T04:02:46.573Z,100.00
2023-04-02T04:05:28.999Z,100.00
2023-04-02T04:08:04.564Z,100.00
2023-04-02T04:10:33.704Z,100.00
2023-04-02T04:13:06.934Z,100.00
2023-04-02T04:15:38.250Z,100.00
2023-04-02T04:18:19.219Z,100.00
2023-04-02T04:20:56.271Z,100.00
2023-04-02T04:23:31.485Z,100.00
2023-04-02T04:26:09.463Z,100.00
2023-04-02T04:28:47.973Z,100.00
2023-04-02T04:31:25.962Z,100.00
2023-04-02T04:34:04.963Z,100.00
2023-04-02T04:36:53.871Z,100.00
2023-04-02T04:39:31.711Z,100.00
2023-04-02T04:42:02.396Z,100.00
2023-04-02T04:44:43.635Z,100.00
2023-04-02T04:47:18.499Z,100.00
2023-04-02T04:49:53.552Z,100.00
2023-04-02T04:52:25.074Z,100.00
2023-04-02T04:54:53.748Z,100.00
2023-04-02T04:57:32.725Z,100.00
2023-04-02T05:00:09.309Z,100.00
2023-04-02T05:02:46.279Z,100.00
2023-04-02T05:05:22.844Z,100.00
2023-04-02T05:07:59.046Z,100.00
2023-04-02T05:10:35.940Z,100.00
2023-04-02T05:13:08.725Z,100.00
2023-04-02T05:15:42.168Z,100.00
2023-04-02T05:18:24.710Z,100.00
2023-04-02T05:21:00.237Z,100.00
2023-04-02T05:23:31.639Z,100.00
2023-04-02T05:26:07.345Z,100.00
2023-04-02T05:28:42.347Z,100.00
2023-04-02T05:31:17.468Z,100.00
2023-04-02T05:33:48.328Z,100.00
2023-04-02T05:36:23.793Z,100.00
2023-04-02T05:38:57.825Z,100.00
2023-04-02T05:41:38.281Z,100.00
2023-04-02T05:44:11.559Z,100.00
2023-04-02T05:46:47.384Z,100.00
2023-04-02T05:49:23.497Z,100.00
2023-04-02T05:51:59.409Z,100.00
2023-04-02T05:54:33.326Z,100.00
2023-04-02T05:57:04.847Z,100.00
2023-04-02T05:59:39.149Z,100.00
2023-04-02T06:02:18.458Z,100.00
2023-04-02T06:04:55.565Z,100.00
2023-04-02T06:07:34.169Z,100.00
2023-04-02T06:10:06.445Z,100.00
2023-04-02T06:12:43.600Z,100.00
2023-04-02T06:15:15.461Z,100.00
2023-04-02T06:17:48.403Z,100.00
2023-04-02T06:20:18.881Z,100.00
2023-04-02T06:22:50.336Z,100.00
2023-04-02T06:25:24.448Z,100.00
2023-04-02T06:27:56.742Z,100.00
2023-04-02T06:30:29.344Z,100.00
2023-04-02T06:32:57.819Z,100.00
2023-04-02T06:35:27.076Z,100.00
2023-04-02T06:38:06.674Z,100.00
2023-04-02T06:40:42.689Z,100.00
2023-04-02T06:43:26.305Z,100.00
2023-04-02T06:46:21.752Z,100.00
2023-04-02T06:49:10.383Z,100.00
2023-04-02T06:51:41.924Z,100.00
2023-04-02T06:54:16.145Z,100.00
2023-04-02T06:56:47.800Z,100.00
2023-04-02T06:59:21.632Z,100.00
2023-04-02T07:01:54.370Z,100.00
2023-04-02T07:04:23.244Z,100.00
2023-04-02T07:06:53.552Z,100.00
2023-04-02T07:09:25.886Z,100.00
2023-04-02T07:11:56.471Z,100.00
2023-04-02T07:14:24.319Z,100.00
2023-04-02T07:16:52.598Z,100.00
2023-04-02T07:19:22.687Z,100.00
2023-04-02T07:21:54.917Z,100.00
2023-04-02T07:24:26.140Z,100.00
2023-04-02T07:26:54.041Z,100.00
2023-04-02T07:29:21.878Z,100.00
2023-04-02T07:31:49.843Z,100.00
2023-04-02T07:34:17.696Z,100.00
2023-04-02T07:36:45.864Z,100.00
2023-04-02T07:39:13.677Z,100.00
2023-04-02T07:41:56.965Z,100.00
2023-04-02T07:44:24.781Z,100.00
2023-04-02T07:46:52.666Z,100.00
2023-04-02T07:49:20.593Z,100.00
2023-04-02T07:51:48.636Z,100.00
2023-04-02T07:54:16.502Z,100.00
2023-04-02T07:56:44.258Z,100.00
2023-04-02T07:59:13.392Z,100.00
2023-04-02T08:01:42.881Z,100.00
2023-04-02T08:04:18.841Z,100.00
2023-04-02T08:06:47.119Z,100.00
2023-04-02T08:09:14.977Z,100.00
2023-04-02T08:11:42.813Z,100.00
2023-04-02T08:14:10.876Z,100.00
2023-04-02T08:16:48.277Z,100.00
2023-04-02T08:19:16.511Z,99.94
2023-04-02T08:21:45.582Z,99.94
2023-04-02T08:24:13.419Z,100.00
2023-04-02T08:26:41.941Z,100.00
2023-04-02T08:29:10.405Z,100.00
2023-04-02T08:31:38.319Z,100.00
2023-04-02T08:34:07.783Z,100.00
2023-04-02T08:36:38.684Z,99.97
2023-04-02T08:39:10.993Z,99.86
2023-04-02T08:41:44.966Z,99.75
2023-04-02T08:44:26.007Z,99.82
2023-04-02T08:46:58.859Z,99.43
2023-04-02T08:49:32.218Z,99.85
2023-04-02T08:52:00.755Z,99.40
2023-04-02T08:54:31.579Z,98.61
2023-04-02T08:57:05.628Z,98.15
2023-04-02T08:59:36.675Z,98.89
2023-04-02T09:02:25.935Z,97.38
2023-04-02T09:04:55.945Z,96.33
2023-04-02T09:07:24.000Z,96.47
2023-04-02T09:09:52.034Z,97.24
2023-04-02T09:12:21.238Z,95.86
2023-04-02T09:15:01.925Z,95.43
2023-04-02T09:17:34.738Z,95.72
2023-04-02T09:20:17.886Z,96.32
2023-04-02T09:22:48.400Z,96.59
2023-04-02T09:25:19.601Z,96.63
2023-04-02T09:27:49.140Z,96.66
2023-04-02T09:30:29.551Z,96.21
2023-04-02T09:33:00.763Z,96.28
2023-04-02T09:35:32.420Z,96.08
2023-04-02T09:38:19.406Z,97.50
2023-04-02T09:40:50.951Z,96.21
2023-04-02T09:43:21.149Z,96.35
2023-04-02T09:45:58.494Z,95.47
2023-04-02T09:48:30.232Z,94.72
2023-04-02T09:51:14.191Z,93.88
2023-04-02T09:53:45.775Z,93.58
2023-04-02T09:56:16.172Z,94.42
2023-04-02T09:58:45.173Z,92.84
2023-04-02T10:01:29.185Z,92.19
2023-04-02T10:03:59.050Z,93.21
2023-04-02T10:06:29.567Z,92.69
2023-04-02T10:08:57.846Z,92.90
2023-04-02T10:11:36.428Z,93.42
2023-04-02T10:14:19.480Z,92.11
2023-04-02T10:16:51.542Z,91.77
2023-04-02T10:19:27.695Z,92.56
2023-04-02T10:21:59.213Z,93.38
2023-04-02T10:24:29.522Z,93.20
2023-04-02T10:27:07.057Z,91.98
2023-04-02T10:29:55.779Z,92.75
2023-04-02T10:32:27.425Z,92.96
2023-04-02T10:35:04.662Z,92.14
2023-04-02T10:38:01.144Z,91.44
2023-04-02T10:40:35.574Z,91.41
2023-04-02T10:43:35.226Z,91.14
2023-04-02T10:46:09.327Z,90.27
2023-04-02T10:48:45.454Z,89.69
2023-04-02T10:51:30.364Z,89.77
2023-04-02T10:54:12.132Z,89.36
2023-04-02T10:56:48.316Z,89.05
2023-04-02T10:59:22.373Z,89.02
2023-04-02T11:01:53.666Z,88.48
2023-04-02T11:04:25.520Z,88.84
2023-04-02T11:07:07.129Z,88.93
2023-04-02T11:09:44.468Z,88.58
2023-04-02T11:12:22.001Z,88.04
2023-04-02T11:14:51.968Z,87.90
2023-04-02T11:17:21.440Z,87.47
2023-04-02T11:19:49.354Z,86.85
2023-04-02T11:22:19.998Z,86.91
2023-04-02T11:24:51.054Z,85.95
2023-04-02T11:27:27.349Z,85.59
2023-04-02T11:30:06.170Z,84.75
2023-04-02T11:32:39.714Z,84.54
2023-04-02T11:35:27.612Z,85.23
2023-04-02T11:37:58.476Z,86.50
2023-04-02T11:40:50.152Z,86.08
2023-04-02T11:44:01.444Z,86.29
2023-04-02T11:46:47.470Z,86.96
2023-04-02T11:49:39.622Z,87.46
2023-04-02T11:52:24.451Z,85.89
2023-04-02T11:55:05.690Z,86.40
2023-04-02T11:57:46.718Z,85.91
2023-04-02T12:00:29.407Z,86.19
2023-04-02T12:03:21.184Z,84.08
2023-04-02T12:05:58.544Z,84.30
2023-04-02T12:08:50.705Z,84.37
2023-04-02T12:11:33.632Z,84.07
2023-04-02T12:14:07.775Z,84.24
2023-04-02T12:16:36.484Z,83.12
2023-04-02T12:19:10.181Z,84.71
2023-04-02T12:21:39.019Z,82.67
2023-04-02T12:24:08.080Z,82.81
2023-04-02T12:26:38.327Z,82.57
2023-04-02T12:29:18.500Z,81.89
2023-04-02T12:31:48.706Z,82.28
2023-04-02T12:34:18.942Z,81.82
2023-04-02T12:36:55.009Z,81.48
2023-04-02T12:39:24.668Z,81.94
2023-04-02T12:41:54.796Z,81.96
2023-04-02T12:44:26.235Z,81.74
2023-04-02T12:46:54.799Z,81.99
2023-04-02T12:49:31.568Z,80.92
2023-04-02T12:52:02.646Z,79.45
2023-04-02T12:54:36.401Z,79.95
2023-04-02T12:57:31.567Z,79.18
2023-04-02T13:00:05.452Z,78.85
2023-04-02T13:02:43.912Z,81.10
2023-04-02T13:11:18.261Z,79.71
2023-04-02T13:13:48.484Z,80.68
2023-04-02T13:16:33.628Z,80.16
2023-04-02T13:19:22.805Z,80.23
2023-04-02T13:21:52.535Z,80.71
2023-04-02T13:24:22.046Z,80.71
2023-04-02T13:26:50.780Z,81.19
2023-04-02T13:29:25.916Z,80.76
2023-04-02T13:31:58.357Z,79.65
2023-04-02T13:34:26.685Z,80.08
2023-04-02T13:36:55.065Z,79.37
2023-04-02T13:39:22.880Z,81.09
2023-04-02T13:41:53.032Z,79.67
2023-04-02T13:44:24.231Z,78.74
2023-04-02T13:46:52.893Z,79.08
2023-04-02T13:49:22.767Z,78.52
2023-04-02T13:51:51.767Z,78.23
2023-04-02T13:54:23.952Z,78.34
2023-04-02T13:56:51.875Z,78.39
2023-04-02T13:59:23.368Z,78.75
2023-04-02T14:01:54.845Z,79.00
2023-04-02T14:04:28.150Z,78.82
2023-04-02T14:07:30.579Z,78.68
2023-04-02T14:10:05.352Z,79.43
2023-04-02T14:12:59.854Z,78.97
2023-04-02T14:15:38.495Z,79.00
2023-04-02T14:18:25.850Z,78.75
2023-04-02T14:21:06.848Z,78.25
2023-04-02T14:23:49.610Z,77.37
2023-04-02T14:26:26.249Z,76.64
2023-04-02T14:29:01.496Z,76.40
2023-04-02T14:31:35.619Z,77.75
2023-04-02T14:34:14.864Z,77.49
2023-04-02T14:36:56.314Z,77.22
2023-04-02T14:39:35.948Z,76.61
2023-04-02T14:42:13.741Z,76.37
2023-04-02T14:44:47.516Z,76.65
2023-04-02T14:47:22.296Z,75.58
2023-04-02T14:49:57.003Z,76.64
2023-04-02T14:52:29.657Z,76.11
2023-04-02T14:55:03.333Z,76.42
2023-04-02T14:57:34.239Z,74.83
2023-04-02T15:00:06.458Z,74.41
2023-04-02T15:02:40.939Z,74.85
2023-04-02T15:05:17.604Z,75.14
2023-04-02T15:07:53.105Z,74.89
2023-04-02T15:10:26.241Z,74.54
2023-04-02T15:12:57.931Z,74.46
2023-04-02T15:15:40.319Z,74.49
2023-04-02T15:18:12.573Z,73.14
2023-04-02T15:20:49.263Z,74.05
2023-04-02T15:23:29.846Z,73.96
2023-04-02T15:26:08.390Z,74.76
2023-04-02T15:28:42.204Z,74.13
2023-04-02T15:31:15.281Z,74.67
2023-04-02T15:33:45.914Z,74.08
2023-04-02T15:36:31.429Z,74.32
2023-04-02T15:39:11.093Z,73.93
2023-04-02T15:41:42.861Z,74.72
2023-04-02T15:44:16.184Z,73.94
2023-04-02T15:46:57.969Z,74.13
2023-04-02T15:49:42.590Z,72.66
2023-04-02T15:52:16.397Z,73.80
2023-04-02T15:55:11.391Z,73.21
2023-04-02T15:57:54.646Z,73.77
2023-04-02T16:00:27.838Z,73.07
2023-04-02T16:03:27.569Z,72.97
2023-04-02T16:06:28.943Z,71.96
2023-04-02T16:09:23.941Z,72.09
2023-04-02T16:11:59.285Z,72.35
2023-04-02T16:14:28.928Z,72.47
2023-04-02T16:17:05.924Z,71.91
2023-04-02T16:19:45.559Z,72.01
2023-04-02T16:22:18.525Z,70.96
2023-04-02T16:24:49.990Z,71.36
2023-04-02T16:27:30.062Z,71.10
2023-04-02T16:30:09.534Z,71.28
2023-04-02T16:32:51.912Z,71.63
2023-04-02T16:35:42.331Z,70.94
2023-04-02T16:38:23.243Z,70.71
2023-04-02T16:41:07.562Z,70.47
2023-04-02T16:43:42.188Z,70.20
2023-04-02T16:46:22.663Z,70.47
2023-04-02T16:49:08.515Z,68.57
2023-04-02T16:51:46.389Z,68.39
2023-04-02T16:54:21.213Z,67.54
2023-04-02T16:57:04.514Z,66.51
2023-04-02T16:59:39.907Z,67.88
2023-04-02T17:02:26.634Z,67.30
2023-04-02T17:05:06.120Z,67.18
2023-04-02T17:07:44.720Z,68.96
2023-04-02T17:10:25.637Z,67.85
2023-04-02T17:13:02.966Z,66.92
2023-04-02T17:15:37.289Z,67.74
2023-04-02T17:18:14.641Z,66.68
2023-04-02T17:20:42.887Z,66.86
2023-04-02T17:23:14.640Z,66.91
2023-04-02T17:25:49.258Z,65.86
2023-04-02T17:28:25.447Z,65.91
2023-04-02T17:30:57.595Z,66.21
2023-04-02T17:33:27.284Z,65.53
2023-04-02T17:36:15.590Z,65.72
2023-04-02T17:38:52.129Z,66.32
2023-04-02T17:41:24.390Z,66.48
2023-04-02T17:43:59.485Z,67.31
2023-04-02T17:46:38.618Z,67.30
2023-04-02T17:49:16.956Z,67.05
2023-04-02T17:51:50.428Z,67.89
2023-04-02T17:54:31.971Z,67.55
2023-04-02T17:57:17.557Z,67.22
2023-04-02T17:59:56.622Z,66.84
2023-04-02T18:02:40.014Z,66.76
2023-04-02T18:05:18.089Z,67.55
2023-04-02T18:07:53.384Z,66.02
2023-04-02T18:10:28.483Z,66.06
2023-04-02T18:12:58.462Z,66.76
2023-04-02T18:15:55.551Z,66.51
2023-04-02T18:18:42.144Z,65.80
2023-04-02T18:21:22.081Z,66.71
2023-04-02T18:24:03.260Z,65.64
2023-04-02T18:26:38.389Z,66.01
2023-04-02T18:29:18.994Z,66.44
2023-04-02T18:31:53.245Z,65.67
2023-04-02T18:34:44.835Z,65.54
2023-04-02T18:37:24.055Z,65.97
2023-04-02T18:40:12.932Z,65.90
2023-04-02T18:42:50.512Z,66.04
2023-04-02T18:45:23.015Z,64.96
2023-04-02T18:48:00.748Z,65.93
2023-04-02T18:50:35.023Z,66.10
2023-04-02T18:53:11.818Z,65.21
2023-04-02T18:55:44.273Z,64.12
2023-04-02T18:58:16.514Z,63.65
2023-04-02T19:00:46.450Z,64.31
2023-04-02T19:03:21.209Z,64.08
2023-04-02T19:05:57.502Z,64.20
2023-04-02T19:08:30.192Z,64.31
2023-04-02T19:11:01.663Z,64.28
2023-04-02T19:13:29.822Z,64.65
2023-04-02T19:16:18.853Z,65.30
2023-04-02T19:18:56.720Z,64.67
2023-04-02T19:21:35.610Z,65.16
2023-04-02T19:24:17.624Z,65.12
2023-04-02T19:26:50.334Z,64.74
2023-04-02T19:29:30.252Z,65.48
2023-04-02T19:32:06.765Z,65.69
2023-04-02T19:34:41.221Z,64.40
2023-04-02T19:37:17.952Z,65.58
2023-04-02T19:40:00.865Z,64.46
2023-04-02T19:42:44.251Z,64.79
2023-04-02T19:45:26.387Z,64.59
2023-04-02T19:47:54.670Z,64.49
2023-04-02T19:50:22.841Z,64.49
2023-04-02T19:52:52.172Z,66.00
2023-04-02T19:55:20.239Z,65.80
2023-04-02T19:57:48.326Z,65.57
2023-04-02T20:00:17.108Z,65.92
2023-04-02T20:02:45.482Z,64.66
2023-04-02T20:05:13.936Z,64.75
2023-04-02T20:07:42.833Z,64.19
2023-04-02T20:10:13.392Z,64.37
2023-04-02T20:12:41.492Z,64.58
2023-04-02T20:15:10.540Z,64.33
2023-04-02T20:17:38.469Z,63.93
2023-04-02T20:20:07.717Z,63.68
2023-04-02T20:22:35.611Z,63.87
2023-04-02T20:25:03.508Z,63.49
2023-04-02T20:27:32.859Z,62.64
2023-04-02T20:30:00.762Z,63.74
2023-04-02T20:32:28.721Z,62.50
2023-04-02T20:34:56.653Z,63.85
2023-04-02T20:37:24.650Z,63.68
2023-04-02T20:39:52.624Z,64.46
2023-04-02T20:42:20.604Z,64.32
2023-04-02T20:44:50.006Z,63.91
2023-04-02T20:47:18.276Z,64.34
2023-04-02T20:49:46.442Z,64.02
2023-04-02T20:52:14.435Z,64.32
2023-04-02T20:54:42.220Z,65.02
2023-04-02T20:57:10.265Z,64.60
2023-04-02T20:59:38.184Z,63.81
2023-04-02T21:02:07.937Z,63.97
2023-04-02T21:04:35.821Z,64.05
2023-04-02T21:07:03.594Z,63.72
2023-04-02T21:09:32.065Z,63.84
2023-04-02T21:11:59.926Z,65.10
2023-04-02T21:14:27.784Z,68.12
2023-04-02T21:16:56.589Z,66.05
2023-04-02T21:19:27.045Z,67.31
2023-04-02T21:21:55.632Z,65.41
2023-04-02T21:24:23.445Z,65.47
2023-04-02T21:26:51.484Z,67.05
2023-04-02T21:29:19.472Z,65.65
2023-04-02T21:31:47.442Z,65.86
2023-04-02T21:34:17.352Z,67.02
2023-04-02T21:36:48.719Z,68.76
2023-04-02T21:39:19.037Z,68.64
2023-04-02T21:41:50.001Z,69.25
2023-04-02T21:44:19.805Z,70.78
2023-04-02T21:46:49.357Z,72.54
2023-04-02T21:49:21.930Z,73.49
2023-04-02T21:51:52.404Z,73.97
2023-04-02T21:54:20.510Z,74.26
2023-04-02T21:56:48.792Z,74.69
2023-04-02T21:59:18.421Z,75.28
2023-04-02T22:01:49.319Z,77.16
2023-04-02T22:04:19.865Z,78.55
2023-04-02T22:06:48.355Z,79.37
2023-04-02T22:09:19.160Z,78.56
2023-04-02T22:11:49.594Z,79.47
2023-04-02T22:14:18.152Z,80.37
2023-04-02T22:16:46.100Z,80.47
2023-04-02T22:19:16.279Z,81.57
2023-04-02T22:21:45.029Z,82.53
2023-04-02T22:24:16.017Z,82.32
2023-04-02T22:26:46.239Z,82.71
2023-04-02T22:29:14.558Z,83.40
2023-04-02T22:31:42.414Z,83.30
2023-04-02T22:34:10.667Z,82.72
2023-04-02T22:36:38.717Z,81.92
2023-04-02T22:39:10.437Z,81.54
2023-04-02T22:41:38.517Z,81.49
2023-04-02T22:44:07.873Z,81.81
2023-04-02T22:46:35.994Z,81.47
2023-04-02T22:49:04.523Z,82.23
2023-04-02T22:51:32.440Z,82.05
2023-04-02T22:54:00.330Z,82.75
2023-04-02T22:56:32.031Z,82.38
2023-04-02T22:59:00.778Z,81.01
2023-04-02T23:01:32.911Z,82.12
2023-04-02T23:04:01.188Z,84.29
2023-04-02T23:06:29.907Z,83.93
2023-04-02T23:08:57.892Z,82.72
2023-04-02T23:11:27.288Z,82.98
2023-04-02T23:13:57.456Z,83.15
2023-04-02T23:16:27.710Z,81.54
2023-04-02T23:18:57.657Z,77.88
2023-04-02T23:21:26.169Z,76.80
2023-04-02T23:23:55.365Z,76.56
2023-04-02T23:26:26.004Z,75.98
2023-04-02T23:28:53.883Z,75.52
2023-04-02T23:31:23.753Z,74.77
2023-04-02T23:33:52.184Z,74.77
2023-04-02T23:36:23.439Z,73.69
2023-04-02T23:38:55.102Z,74.01
2023-04-02T23:41:26.524Z,74.00
2023-04-02T23:43:55.915Z,74.38
2023-04-02T23:46:24.797Z,74.55
2023-04-02T23:48:53.068Z,74.47
2023-04-02T23:51:22.568Z,74.21
2023-04-02T23:53:51.087Z,73.89
2023-04-02T23:56:19.072Z,74.07
2023-04-02T23:58:47.016Z,73.73
